sensor_id;sensor_type;location;lat;lon;timestamp;P1;durP1;ratioP1;P2;durP2;ratioP2
10007;SDS011;5043;41.766;26.204;2023-12-04T00:03:04;1.88;;;1.65;;
10007;SDS011;5043;41.766;26.204;2023-12-04T00:05:33;1.55;;;1.05;;
10007;SDS011;5043;41.766;26.204;2023-12-04T00:12:00;1.60;;;1.50;;
10007;SDS011;5043;41.766;26.204;2023-12-04T00:14:25;1.25;;;1.25;;
10007;SDS011;5043;41.766;26.204;2023-12-04T00:16:51;1.30;;;1.20;;
10007;SDS011;5043;41.766;26.204;2023-12-04T00:19:16;1.00;;;1.00;;
10007;SDS011;5043;41.766;26.204;2023-12-04T00:24:39;3.10;;;1.20;;
10007;SDS011;5043;41.766;26.204;2023-12-04T00:27:11;1.50;;;1.30;;
10007;SDS011;5043;41.766;26.204;2023-12-04T00:29:37;1.75;;;1.48;;
10007;SDS011;5043;41.766;26.204;2023-12-04T00:36:03;1.50;;;1.40;;
10007;SDS011;5043;41.766;26.204;2023-12-04T00:42:10;1.30;;;1.20;;
10007;SDS011;5043;41.766;26.204;2023-12-04T00:48:37;1.10;;;1.00;;
10007;SDS011;5043;41.766;26.204;2023-12-04T00:54:39;1.73;;;1.30;;
10007;SDS011;5043;41.766;26.204;2023-12-04T00:57:09;1.58;;;1.48;;
10007;SDS011;5043;41.766;26.204;2023-12-04T00:59:35;3.00;;;2.10;;
10007;SDS011;5043;41.766;26.204;2023-12-04T01:06:01;1.42;;;1.33;;
10007;SDS011;5043;41.766;26.204;2023-12-04T01:18:38;2.00;;;1.52;;
10007;SDS011;5043;41.766;26.204;2023-12-04T01:21:11;1.60;;;1.50;;
10007;SDS011;5043;41.766;26.204;2023-12-04T01:29:41;1.75;;;1.65;;
10007;SDS011;5043;41.766;26.204;2023-12-04T01:32:07;1.38;;;1.25;;
10007;SDS011;5043;41.766;26.204;2023-12-04T01:34:32;1.45;;;1.35;;
10007;SDS011;5043;41.766;26.204;2023-12-04T01:52:04;2.20;;;1.30;;
10007;SDS011;5043;41.766;26.204;2023-12-04T01:54:30;2.78;;;2.50;;
10007;SDS011;5043;41.766;26.204;2023-12-04T01:56:57;4.93;;;3.15;;
10007;SDS011;5043;41.766;26.204;2023-12-04T01:59:23;4.50;;;3.28;;
10007;SDS011;5043;41.766;26.204;2023-12-04T02:01:51;3.35;;;3.05;;
10007;SDS011;5043;41.766;26.204;2023-12-04T02:04:17;4.10;;;2.97;;
10007;SDS011;5043;41.766;26.204;2023-12-04T02:06:43;2.67;;;2.28;;
10007;SDS011;5043;41.766;26.204;2023-12-04T02:09:08;2.30;;;2.10;;
10007;SDS011;5043;41.766;26.204;2023-12-04T02:11:37;2.47;;;2.28;;
10007;SDS011;5043;41.766;26.204;2023-12-04T02:14:04;3.10;;;2.55;;
10007;SDS011;5043;41.766;26.204;2023-12-04T02:16:30;3.35;;;2.47;;
10007;SDS011;5043;41.766;26.204;2023-12-04T02:19:00;3.53;;;2.35;;
10007;SDS011;5043;41.766;26.204;2023-12-04T02:21:26;2.85;;;2.50;;
10007;SDS011;5043;41.766;26.204;2023-12-04T02:23:54;2.97;;;2.55;;
10007;SDS011;5043;41.766;26.204;2023-12-04T02:26:22;2.83;;;2.53;;
10007;SDS011;5043;41.766;26.204;2023-12-04T02:28:58;2.88;;;2.45;;
10007;SDS011;5043;41.766;26.204;2023-12-04T02:31:26;2.73;;;2.50;;
10007;SDS011;5043;41.766;26.204;2023-12-04T02:33:55;3.63;;;2.47;;
10007;SDS011;5043;41.766;26.204;2023-12-04T02:36:22;2.58;;;2.33;;
10007;SDS011;5043;41.766;26.204;2023-12-04T02:38:50;3.92;;;2.75;;
10007;SDS011;5043;41.766;26.204;2023-12-04T02:41:17;8.82;;;5.57;;
10007;SDS011;5043;41.766;26.204;2023-12-04T02:43:43;2.72;;;2.30;;
10007;SDS011;5043;41.766;26.204;2023-12-04T02:46:08;4.03;;;2.47;;
10007;SDS011;5043;41.766;26.204;2023-12-04T02:48:34;2.70;;;2.28;;
10007;SDS011;5043;41.766;26.204;2023-12-04T02:51:00;2.58;;;1.90;;
10007;SDS011;5043;41.766;26.204;2023-12-04T02:53:25;3.67;;;2.58;;
10007;SDS011;5043;41.766;26.204;2023-12-04T02:55:51;4.40;;;2.15;;
10007;SDS011;5043;41.766;26.204;2023-12-04T02:58:16;2.75;;;1.95;;
10007;SDS011;5043;41.766;26.204;2023-12-04T03:00:42;2.83;;;2.10;;
10007;SDS011;5043;41.766;26.204;2023-12-04T03:03:07;3.17;;;2.20;;
10007;SDS011;5043;41.766;26.204;2023-12-04T03:05:33;3.03;;;2.08;;
10007;SDS011;5043;41.766;26.204;2023-12-04T03:07:58;3.53;;;2.10;;
10007;SDS011;5043;41.766;26.204;2023-12-04T03:10:23;2.93;;;1.90;;
10007;SDS011;5043;41.766;26.204;2023-12-04T03:12:49;2.97;;;2.08;;
10007;SDS011;5043;41.766;26.204;2023-12-04T03:15:14;1.80;;;1.65;;
10007;SDS011;5043;41.766;26.204;2023-12-04T03:17:40;1.53;;;1.40;;
10007;SDS011;5043;41.766;26.204;2023-12-04T03:20:06;2.80;;;1.50;;
10007;SDS011;5043;41.766;26.204;2023-12-04T03:22:34;8.50;;;1.90;;
10007;SDS011;5043;41.766;26.204;2023-12-04T03:25:01;14.95;;;8.18;;
10007;SDS011;5043;41.766;26.204;2023-12-04T03:27:26;3.47;;;2.45;;
10007;SDS011;5043;41.766;26.204;2023-12-04T03:29:51;2.60;;;1.57;;
10007;SDS011;5043;41.766;26.204;2023-12-04T03:32:17;2.97;;;1.27;;
10007;SDS011;5043;41.766;26.204;2023-12-04T03:34:42;2.33;;;1.80;;
10007;SDS011;5043;41.766;26.204;2023-12-04T03:37:08;2.33;;;1.50;;
10007;SDS011;5043;41.766;26.204;2023-12-04T03:39:33;1.70;;;1.47;;
10007;SDS011;5043;41.766;26.204;2023-12-04T03:41:59;3.45;;;1.85;;
10007;SDS011;5043;41.766;26.204;2023-12-04T03:44:24;4.13;;;1.90;;
10007;SDS011;5043;41.766;26.204;2023-12-04T03:46:50;2.57;;;2.30;;
10007;SDS011;5043;41.766;26.204;2023-12-04T03:49:16;7.97;;;2.77;;
10007;SDS011;5043;41.766;26.204;2023-12-04T03:51:42;2.70;;;2.47;;
10007;SDS011;5043;41.766;26.204;2023-12-04T03:54:07;2.57;;;2.33;;
10007;SDS011;5043;41.766;26.204;2023-12-04T03:56:33;2.10;;;1.90;;
10007;SDS011;5043;41.766;26.204;2023-12-04T03:58:58;2.50;;;2.03;;
10007;SDS011;5043;41.766;26.204;2023-12-04T04:01:24;2.60;;;1.70;;
10007;SDS011;5043;41.766;26.204;2023-12-04T04:03:49;1.95;;;1.85;;
10007;SDS011;5043;41.766;26.204;2023-12-04T04:06:15;3.55;;;2.33;;
10007;SDS011;5043;41.766;26.204;2023-12-04T04:08:40;2.13;;;1.90;;
10007;SDS011;5043;41.766;26.204;2023-12-04T04:11:06;3.25;;;2.55;;
10007;SDS011;5043;41.766;26.204;2023-12-04T04:13:32;2.42;;;2.22;;
10007;SDS011;5043;41.766;26.204;2023-12-04T04:15:57;4.57;;;3.40;;
10007;SDS011;5043;41.766;26.204;2023-12-04T04:18:23;2.03;;;1.77;;
10007;SDS011;5043;41.766;26.204;2023-12-04T04:20:48;3.83;;;2.40;;
10007;SDS011;5043;41.766;26.204;2023-12-04T04:23:14;2.55;;;2.35;;
10007;SDS011;5043;41.766;26.204;2023-12-04T04:25:39;3.38;;;2.50;;
10007;SDS011;5043;41.766;26.204;2023-12-04T04:28:05;4.30;;;2.07;;
10007;SDS011;5043;41.766;26.204;2023-12-04T04:30:30;6.07;;;2.37;;
10007;SDS011;5043;41.766;26.204;2023-12-04T04:32:56;3.17;;;2.70;;
10007;SDS011;5043;41.766;26.204;2023-12-04T04:35:21;2.93;;;2.63;;
10007;SDS011;5043;41.766;26.204;2023-12-04T04:37:46;3.17;;;2.55;;
10007;SDS011;5043;41.766;26.204;2023-12-04T04:40:12;3.57;;;3.03;;
10007;SDS011;5043;41.766;26.204;2023-12-04T04:42:38;6.00;;;2.77;;
10007;SDS011;5043;41.766;26.204;2023-12-04T04:45:03;2.63;;;2.40;;
10007;SDS011;5043;41.766;26.204;2023-12-04T04:47:29;3.10;;;2.80;;
10007;SDS011;5043;41.766;26.204;2023-12-04T04:49:54;4.55;;;3.30;;
10007;SDS011;5043;41.766;26.204;2023-12-04T04:52:20;4.38;;;3.63;;
10007;SDS011;5043;41.766;26.204;2023-12-04T04:54:45;13.73;;;10.03;;
10007;SDS011;5043;41.766;26.204;2023-12-04T04:57:11;6.20;;;5.23;;
10007;SDS011;5043;41.766;26.204;2023-12-04T04:59:36;5.45;;;4.43;;
10007;SDS011;5043;41.766;26.204;2023-12-04T05:02:02;3.60;;;3.30;;
10007;SDS011;5043;41.766;26.204;2023-12-04T05:04:28;3.63;;;3.33;;
10007;SDS011;5043;41.766;26.204;2023-12-04T05:06:53;6.27;;;5.03;;
10007;SDS011;5043;41.766;26.204;2023-12-04T05:09:19;5.17;;;4.67;;
10007;SDS011;5043;41.766;26.204;2023-12-04T05:11:44;7.10;;;5.43;;
10007;SDS011;5043;41.766;26.204;2023-12-04T05:14:09;6.17;;;5.50;;
10007;SDS011;5043;41.766;26.204;2023-12-04T05:16:35;8.57;;;6.00;;
10007;SDS011;5043;41.766;26.204;2023-12-04T05:19:00;5.80;;;4.47;;
10007;SDS011;5043;41.766;26.204;2023-12-04T05:21:26;4.05;;;3.25;;
10007;SDS011;5043;41.766;26.204;2023-12-04T05:23:51;5.65;;;4.47;;
10007;SDS011;5043;41.766;26.204;2023-12-04T05:26:17;4.00;;;3.60;;
10007;SDS011;5043;41.766;26.204;2023-12-04T05:28:42;6.10;;;4.00;;
10007;SDS011;5043;41.766;26.204;2023-12-04T05:31:08;7.27;;;3.60;;
10007;SDS011;5043;41.766;26.204;2023-12-04T05:33:33;6.00;;;4.13;;
10007;SDS011;5043;41.766;26.204;2023-12-04T05:35:59;5.27;;;3.23;;
10007;SDS011;5043;41.766;26.204;2023-12-04T05:38:25;5.33;;;3.30;;
10007;SDS011;5043;41.766;26.204;2023-12-04T05:40:50;2.50;;;2.30;;
10007;SDS011;5043;41.766;26.204;2023-12-04T05:43:16;4.25;;;2.53;;
10007;SDS011;5043;41.766;26.204;2023-12-04T05:45:41;3.33;;;2.90;;
10007;SDS011;5043;41.766;26.204;2023-12-04T05:48:07;17.10;;;10.20;;
10007;SDS011;5043;41.766;26.204;2023-12-04T05:50:32;6.20;;;5.20;;
10007;SDS011;5043;41.766;26.204;2023-12-04T05:52:58;4.83;;;3.60;;
10007;SDS011;5043;41.766;26.204;2023-12-04T05:55:24;5.38;;;3.50;;
10007;SDS011;5043;41.766;26.204;2023-12-04T05:57:49;6.50;;;4.37;;
10007;SDS011;5043;41.766;26.204;2023-12-04T06:00:15;6.77;;;4.80;;
10007;SDS011;5043;41.766;26.204;2023-12-04T06:02:43;5.03;;;3.87;;
10007;SDS011;5043;41.766;26.204;2023-12-04T06:05:10;4.90;;;3.83;;
10007;SDS011;5043;41.766;26.204;2023-12-04T06:07:36;4.17;;;3.60;;
10007;SDS011;5043;41.766;26.204;2023-12-04T06:10:02;4.97;;;4.47;;
10007;SDS011;5043;41.766;26.204;2023-12-04T06:12:31;6.07;;;5.43;;
10007;SDS011;5043;41.766;26.204;2023-12-04T06:14:57;3.63;;;3.13;;
10007;SDS011;5043;41.766;26.204;2023-12-04T06:17:25;6.20;;;3.70;;
10007;SDS011;5043;41.766;26.204;2023-12-04T06:19:52;5.07;;;3.17;;
10007;SDS011;5043;41.766;26.204;2023-12-04T06:22:18;3.87;;;3.37;;
10007;SDS011;5043;41.766;26.204;2023-12-04T06:24:47;7.70;;;6.10;;
10007;SDS011;5043;41.766;26.204;2023-12-04T06:27:14;6.82;;;5.55;;
10007;SDS011;5043;41.766;26.204;2023-12-04T06:29:42;7.65;;;3.67;;
10007;SDS011;5043;41.766;26.204;2023-12-04T06:32:09;7.13;;;3.73;;
10007;SDS011;5043;41.766;26.204;2023-12-04T06:34:35;6.17;;;4.60;;
10007;SDS011;5043;41.766;26.204;2023-12-04T06:37:01;20.50;;;13.03;;
10007;SDS011;5043;41.766;26.204;2023-12-04T06:39:28;7.17;;;5.43;;
10007;SDS011;5043;41.766;26.204;2023-12-04T06:41:57;5.72;;;3.75;;
10007;SDS011;5043;41.766;26.204;2023-12-04T06:44:23;8.75;;;6.03;;
10007;SDS011;5043;41.766;26.204;2023-12-04T06:46:49;7.93;;;5.97;;
10007;SDS011;5043;41.766;26.204;2023-12-04T06:49:17;7.38;;;5.32;;
10007;SDS011;5043;41.766;26.204;2023-12-04T06:51:43;11.55;;;7.70;;
10007;SDS011;5043;41.766;26.204;2023-12-04T06:54:08;8.17;;;4.93;;
10007;SDS011;5043;41.766;26.204;2023-12-04T06:56:34;7.47;;;5.73;;
10007;SDS011;5043;41.766;26.204;2023-12-04T06:58:59;8.30;;;6.23;;
10007;SDS011;5043;41.766;26.204;2023-12-04T07:01:25;17.30;;;10.73;;
10007;SDS011;5043;41.766;26.204;2023-12-04T07:03:50;13.77;;;7.93;;
10007;SDS011;5043;41.766;26.204;2023-12-04T07:06:16;9.70;;;6.50;;
10007;SDS011;5043;41.766;26.204;2023-12-04T07:08:41;5.63;;;4.03;;
10007;SDS011;5043;41.766;26.204;2023-12-04T07:11:07;4.93;;;4.37;;
10007;SDS011;5043;41.766;26.204;2023-12-04T07:13:33;4.00;;;3.38;;
10007;SDS011;5043;41.766;26.204;2023-12-04T07:15:59;3.92;;;3.33;;
10007;SDS011;5043;41.766;26.204;2023-12-04T07:18:25;4.18;;;3.75;;
10007;SDS011;5043;41.766;26.204;2023-12-04T07:20:50;4.77;;;3.87;;
10007;SDS011;5043;41.766;26.204;2023-12-04T07:23:16;4.80;;;3.35;;
10007;SDS011;5043;41.766;26.204;2023-12-04T07:25:41;4.13;;;3.40;;
10007;SDS011;5043;41.766;26.204;2023-12-04T07:28:07;4.00;;;3.60;;
10007;SDS011;5043;41.766;26.204;2023-12-04T07:30:33;4.27;;;3.87;;
10007;SDS011;5043;41.766;26.204;2023-12-04T07:32:58;4.60;;;4.00;;
10007;SDS011;5043;41.766;26.204;2023-12-04T07:35:24;3.78;;;3.38;;
10007;SDS011;5043;41.766;26.204;2023-12-04T07:37:51;7.50;;;5.57;;
10007;SDS011;5043;41.766;26.204;2023-12-04T07:40:17;4.23;;;3.60;;
10007;SDS011;5043;41.766;26.204;2023-12-04T07:42:43;4.85;;;3.45;;
10007;SDS011;5043;41.766;26.204;2023-12-04T07:45:08;14.83;;;4.40;;
10007;SDS011;5043;41.766;26.204;2023-12-04T07:47:35;15.33;;;5.43;;
10007;SDS011;5043;41.766;26.204;2023-12-04T07:50:01;10.67;;;6.47;;
10007;SDS011;5043;41.766;26.204;2023-12-04T07:52:27;3.73;;;3.27;;
10007;SDS011;5043;41.766;26.204;2023-12-04T07:54:52;3.53;;;2.63;;
10007;SDS011;5043;41.766;26.204;2023-12-04T07:57:18;8.57;;;2.57;;
10007;SDS011;5043;41.766;26.204;2023-12-04T07:59:44;1.63;;;1.53;;
10007;SDS011;5043;41.766;26.204;2023-12-04T08:02:09;7.27;;;3.93;;
10007;SDS011;5043;41.766;26.204;2023-12-04T08:04:35;10.90;;;5.05;;
10007;SDS011;5043;41.766;26.204;2023-12-04T08:07:01;2.90;;;1.35;;
10007;SDS011;5043;41.766;26.204;2023-12-04T08:09:27;1.48;;;1.35;;
10007;SDS011;5043;41.766;26.204;2023-12-04T08:11:52;2.42;;;2.15;;
10007;SDS011;5043;41.766;26.204;2023-12-04T08:14:18;4.38;;;3.45;;
10007;SDS011;5043;41.766;26.204;2023-12-04T08:16:43;2.58;;;2.17;;
10007;SDS011;5043;41.766;26.204;2023-12-04T08:19:09;3.83;;;2.50;;
10007;SDS011;5043;41.766;26.204;2023-12-04T08:21:34;4.13;;;3.53;;
10007;SDS011;5043;41.766;26.204;2023-12-04T08:24:00;11.57;;;4.45;;
10007;SDS011;5043;41.766;26.204;2023-12-04T08:26:25;7.57;;;5.28;;
10007;SDS011;5043;41.766;26.204;2023-12-04T08:28:51;7.72;;;5.68;;
10007;SDS011;5043;41.766;26.204;2023-12-04T08:31:17;6.45;;;5.07;;
10007;SDS011;5043;41.766;26.204;2023-12-04T08:33:42;12.25;;;5.13;;
10007;SDS011;5043;41.766;26.204;2023-12-04T08:36:09;14.50;;;5.78;;
10007;SDS011;5043;41.766;26.204;2023-12-04T08:38:35;10.65;;;6.47;;
10007;SDS011;5043;41.766;26.204;2023-12-04T08:41:01;7.65;;;5.65;;
10007;SDS011;5043;41.766;26.204;2023-12-04T08:43:27;8.95;;;4.90;;
10007;SDS011;5043;41.766;26.204;2023-12-04T08:45:53;9.37;;;6.33;;
10007;SDS011;5043;41.766;26.204;2023-12-04T08:48:19;6.45;;;4.57;;
10007;SDS011;5043;41.766;26.204;2023-12-04T08:50:44;9.93;;;5.65;;
10007;SDS011;5043;41.766;26.204;2023-12-04T08:53:10;4.63;;;3.33;;
10007;SDS011;5043;41.766;26.204;2023-12-04T08:55:36;5.95;;;3.60;;
10007;SDS011;5043;41.766;26.204;2023-12-04T08:58:01;7.22;;;3.28;;
10007;SDS011;5043;41.766;26.204;2023-12-04T09:00:27;8.15;;;5.53;;
10007;SDS011;5043;41.766;26.204;2023-12-04T09:02:52;6.40;;;4.20;;
10007;SDS011;5043;41.766;26.204;2023-12-04T09:05:18;6.97;;;4.47;;
10007;SDS011;5043;41.766;26.204;2023-12-04T09:07:43;6.95;;;4.57;;
10007;SDS011;5043;41.766;26.204;2023-12-04T09:10:09;7.88;;;4.57;;
10007;SDS011;5043;41.766;26.204;2023-12-04T09:12:36;10.55;;;5.68;;
10007;SDS011;5043;41.766;26.204;2023-12-04T09:15:03;7.40;;;5.32;;
10007;SDS011;5043;41.766;26.204;2023-12-04T09:17:29;7.17;;;4.93;;
10007;SDS011;5043;41.766;26.204;2023-12-04T09:19:55;6.50;;;5.07;;
10007;SDS011;5043;41.766;26.204;2023-12-04T09:22:21;11.93;;;7.07;;
10007;SDS011;5043;41.766;26.204;2023-12-04T09:24:46;8.73;;;7.13;;
10007;SDS011;5043;41.766;26.204;2023-12-04T09:27:12;5.57;;;4.53;;
10007;SDS011;5043;41.766;26.204;2023-12-04T09:29:37;4.55;;;3.80;;
10007;SDS011;5043;41.766;26.204;2023-12-04T09:32:02;7.53;;;4.93;;
10007;SDS011;5043;41.766;26.204;2023-12-04T09:34:28;5.93;;;4.82;;
10007;SDS011;5043;41.766;26.204;2023-12-04T09:36:54;10.25;;;7.43;;
10007;SDS011;5043;41.766;26.204;2023-12-04T09:39:19;26.83;;;14.13;;
10007;SDS011;5043;41.766;26.204;2023-12-04T09:41:44;9.90;;;5.80;;
10007;SDS011;5043;41.766;26.204;2023-12-04T09:44:11;4.73;;;3.93;;
10007;SDS011;5043;41.766;26.204;2023-12-04T09:46:37;3.70;;;3.10;;
10007;SDS011;5043;41.766;26.204;2023-12-04T09:49:03;4.40;;;3.78;;
10007;SDS011;5043;41.766;26.204;2023-12-04T09:51:29;3.33;;;3.00;;
10007;SDS011;5043;41.766;26.204;2023-12-04T09:53:55;6.60;;;4.32;;
10007;SDS011;5043;41.766;26.204;2023-12-04T09:56:25;3.33;;;3.03;;
10007;SDS011;5043;41.766;26.204;2023-12-04T09:58:52;3.65;;;3.30;;
10007;SDS011;5043;41.766;26.204;2023-12-04T10:01:24;8.07;;;4.30;;
10007;SDS011;5043;41.766;26.204;2023-12-04T10:03:50;6.45;;;3.28;;
10007;SDS011;5043;41.766;26.204;2023-12-04T10:06:16;4.75;;;3.25;;
10007;SDS011;5043;41.766;26.204;2023-12-04T10:08:44;4.03;;;3.60;;
10007;SDS011;5043;41.766;26.204;2023-12-04T10:11:10;4.30;;;3.40;;
10007;SDS011;5043;41.766;26.204;2023-12-04T10:13:37;3.58;;;3.22;;
10007;SDS011;5043;41.766;26.204;2023-12-04T10:16:03;3.55;;;2.60;;
10007;SDS011;5043;41.766;26.204;2023-12-04T10:18:30;5.00;;;2.88;;
10007;SDS011;5043;41.766;26.204;2023-12-04T10:20:56;2.42;;;2.22;;
10007;SDS011;5043;41.766;26.204;2023-12-04T10:23:39;2.85;;;2.47;;
10007;SDS011;5043;41.766;26.204;2023-12-04T10:26:06;2.70;;;2.50;;
10007;SDS011;5043;41.766;26.204;2023-12-04T10:28:32;2.50;;;2.30;;
10007;SDS011;5043;41.766;26.204;2023-12-04T10:30:58;3.67;;;2.65;;
10007;SDS011;5043;41.766;26.204;2023-12-04T10:33:24;3.40;;;2.88;;
10007;SDS011;5043;41.766;26.204;2023-12-04T10:35:53;3.65;;;2.78;;
10007;SDS011;5043;41.766;26.204;2023-12-04T10:38:20;6.43;;;4.13;;
10007;SDS011;5043;41.766;26.204;2023-12-04T10:40:46;2.67;;;2.47;;
10007;SDS011;5043;41.766;26.204;2023-12-04T10:43:18;2.83;;;2.35;;
10007;SDS011;5043;41.766;26.204;2023-12-04T10:45:45;4.03;;;3.22;;
10007;SDS011;5043;41.766;26.204;2023-12-04T10:48:12;11.35;;;6.53;;
10007;SDS011;5043;41.766;26.204;2023-12-04T10:50:39;4.07;;;3.28;;
10007;SDS011;5043;41.766;26.204;2023-12-04T10:53:07;3.05;;;2.60;;
10007;SDS011;5043;41.766;26.204;2023-12-04T10:55:34;2.70;;;2.50;;
10007;SDS011;5043;41.766;26.204;2023-12-04T10:58:01;3.08;;;2.78;;
10007;SDS011;5043;41.766;26.204;2023-12-04T11:00:48;5.00;;;4.60;;
10007;SDS011;5043;41.766;26.204;2023-12-04T11:05:55;6.55;;;4.88;;
10007;SDS011;5043;41.766;26.204;2023-12-04T11:11:31;5.65;;;5.05;;
10007;SDS011;5043;41.766;26.204;2023-12-04T11:14:11;8.20;;;6.50;;
10007;SDS011;5043;41.766;26.204;2023-12-04T11:16:47;5.03;;;3.90;;
10007;SDS011;5043;41.766;26.204;2023-12-04T11:21:45;8.60;;;4.57;;
10007;SDS011;5043;41.766;26.204;2023-12-04T11:24:11;7.18;;;5.00;;
10007;SDS011;5043;41.766;26.204;2023-12-04T11:26:37;5.07;;;4.57;;
10007;SDS011;5043;41.766;26.204;2023-12-04T11:29:12;5.47;;;4.30;;
10007;SDS011;5043;41.766;26.204;2023-12-04T11:31:39;6.15;;;4.25;;
10007;SDS011;5043;41.766;26.204;2023-12-04T11:43:31;5.93;;;4.78;;
10007;SDS011;5043;41.766;26.204;2023-12-04T11:46:09;6.50;;;5.28;;
10007;SDS011;5043;41.766;26.204;2023-12-04T11:48:38;8.40;;;5.80;;
10007;SDS011;5043;41.766;26.204;2023-12-04T11:54:07;15.50;;;9.65;;
10007;SDS011;5043;41.766;26.204;2023-12-04T11:56:56;6.32;;;5.03;;
10007;SDS011;5043;41.766;26.204;2023-12-04T11:59:22;4.45;;;3.28;;
10007;SDS011;5043;41.766;26.204;2023-12-04T12:01:50;6.03;;;4.00;;
10007;SDS011;5043;41.766;26.204;2023-12-04T12:04:17;4.65;;;3.17;;
10007;SDS011;5043;41.766;26.204;2023-12-04T12:09:40;4.70;;;3.40;;
10007;SDS011;5043;41.766;26.204;2023-12-04T12:15:08;5.50;;;3.45;;
10007;SDS011;5043;41.766;26.204;2023-12-04T12:17:43;4.85;;;3.42;;
10007;SDS011;5043;41.766;26.204;2023-12-04T12:20:19;3.67;;;3.30;;
10007;SDS011;5043;41.766;26.204;2023-12-04T12:38:16;4.32;;;3.30;;
10007;SDS011;5043;41.766;26.204;2023-12-04T12:40:43;6.85;;;4.65;;
10007;SDS011;5043;41.766;26.204;2023-12-04T12:43:09;3.55;;;3.20;;
10007;SDS011;5043;41.766;26.204;2023-12-04T12:45:41;6.47;;;4.15;;
10007;SDS011;5043;41.766;26.204;2023-12-04T12:51:07;20.13;;;12.38;;
10007;SDS011;5043;41.766;26.204;2023-12-04T12:53:36;11.48;;;6.80;;
10007;SDS011;5043;41.766;26.204;2023-12-04T12:56:01;10.73;;;6.38;;
10007;SDS011;5043;41.766;26.204;2023-12-04T12:58:28;12.77;;;6.60;;
10007;SDS011;5043;41.766;26.204;2023-12-04T13:00:53;7.15;;;4.10;;
10007;SDS011;5043;41.766;26.204;2023-12-04T13:03:19;8.27;;;3.58;;
10007;SDS011;5043;41.766;26.204;2023-12-04T13:05:45;8.27;;;4.47;;
10007;SDS011;5043;41.766;26.204;2023-12-04T13:08:11;6.90;;;4.07;;
10007;SDS011;5043;41.766;26.204;2023-12-04T13:10:37;18.13;;;8.38;;
10007;SDS011;5043;41.766;26.204;2023-12-04T13:13:03;9.02;;;4.75;;
10007;SDS011;5043;41.766;26.204;2023-12-04T13:15:28;9.10;;;3.90;;
10007;SDS011;5043;41.766;26.204;2023-12-04T13:17:54;6.75;;;4.72;;
10007;SDS011;5043;41.766;26.204;2023-12-04T13:20:30;8.55;;;4.93;;
10007;SDS011;5043;41.766;26.204;2023-12-04T13:22:55;10.57;;;5.32;;
10007;SDS011;5043;41.766;26.204;2023-12-04T13:25:21;4.35;;;3.28;;
10007;SDS011;5043;41.766;26.204;2023-12-04T13:27:58;6.32;;;3.80;;
10007;SDS011;5043;41.766;26.204;2023-12-04T13:30:24;5.63;;;3.50;;
10007;SDS011;5043;41.766;26.204;2023-12-04T13:32:49;5.25;;;4.07;;
10007;SDS011;5043;41.766;26.204;2023-12-04T13:35:17;5.78;;;4.13;;
10007;SDS011;5043;41.766;26.204;2023-12-04T13:37:47;5.60;;;3.63;;
10007;SDS011;5043;41.766;26.204;2023-12-04T13:40:19;4.07;;;3.40;;
10007;SDS011;5043;41.766;26.204;2023-12-04T13:46:01;3.67;;;2.67;;
10007;SDS011;5043;41.766;26.204;2023-12-04T13:48:47;6.25;;;2.55;;
10007;SDS011;5043;41.766;26.204;2023-12-04T13:51:12;3.00;;;2.63;;
10007;SDS011;5043;41.766;26.204;2023-12-04T13:53:38;4.38;;;2.45;;
10007;SDS011;5043;41.766;26.204;2023-12-04T13:59:20;5.80;;;2.90;;
10007;SDS011;5043;41.766;26.204;2023-12-04T14:01:47;6.05;;;4.25;;
10007;SDS011;5043;41.766;26.204;2023-12-04T14:04:14;5.20;;;3.25;;
10007;SDS011;5043;41.766;26.204;2023-12-04T14:06:40;4.50;;;3.13;;
10007;SDS011;5043;41.766;26.204;2023-12-04T14:09:09;3.50;;;2.88;;
10007;SDS011;5043;41.766;26.204;2023-12-04T14:11:54;2.78;;;2.45;;
10007;SDS011;5043;41.766;26.204;2023-12-04T14:14:59;5.07;;;2.35;;
10007;SDS011;5043;41.766;26.204;2023-12-04T14:18:28;4.32;;;3.25;;
10007;SDS011;5043;41.766;26.204;2023-12-04T14:21:01;20.50;;;9.43;;
10007;SDS011;5043;41.766;26.204;2023-12-04T14:23:27;14.95;;;6.82;;
10007;SDS011;5043;41.766;26.204;2023-12-04T14:28:50;4.13;;;3.72;;
10007;SDS011;5043;41.766;26.204;2023-12-04T14:31:15;6.25;;;4.85;;
10007;SDS011;5043;41.766;26.204;2023-12-04T14:33:41;9.35;;;6.80;;
10007;SDS011;5043;41.766;26.204;2023-12-04T14:36:14;11.18;;;7.10;;
10007;SDS011;5043;41.766;26.204;2023-12-04T14:45:39;6.78;;;4.35;;
10007;SDS011;5043;41.766;26.204;2023-12-04T14:48:05;7.38;;;4.47;;
10007;SDS011;5043;41.766;26.204;2023-12-04T14:50:40;5.15;;;3.95;;
10007;SDS011;5043;41.766;26.204;2023-12-04T14:56:36;12.70;;;9.38;;
10007;SDS011;5043;41.766;26.204;2023-12-04T14:59:02;13.90;;;9.45;;
10007;SDS011;5043;41.766;26.204;2023-12-04T15:01:31;19.65;;;12.05;;
10007;SDS011;5043;41.766;26.204;2023-12-04T15:04:06;20.55;;;12.23;;
10007;SDS011;5043;41.766;26.204;2023-12-04T15:06:49;16.42;;;11.23;;
10007;SDS011;5043;41.766;26.204;2023-12-04T15:12:40;13.57;;;7.00;;
10007;SDS011;5043;41.766;26.204;2023-12-04T15:15:24;11.20;;;7.07;;
10007;SDS011;5043;41.766;26.204;2023-12-04T15:18:10;10.75;;;6.00;;
10007;SDS011;5043;41.766;26.204;2023-12-04T15:20:54;10.05;;;6.75;;
10007;SDS011;5043;41.766;26.204;2023-12-04T15:23:20;13.13;;;6.93;;
10007;SDS011;5043;41.766;26.204;2023-12-04T15:25:52;8.60;;;5.68;;
10007;SDS011;5043;41.766;26.204;2023-12-04T15:28:18;7.40;;;4.80;;
10007;SDS011;5043;41.766;26.204;2023-12-04T15:30:43;8.07;;;5.20;;
10007;SDS011;5043;41.766;26.204;2023-12-04T15:33:11;10.73;;;5.40;;
10007;SDS011;5043;41.766;26.204;2023-12-04T15:35:37;8.77;;;5.95;;
10007;SDS011;5043;41.766;26.204;2023-12-04T15:38:03;9.32;;;5.93;;
10007;SDS011;5043;41.766;26.204;2023-12-04T15:40:29;10.05;;;6.97;;
10007;SDS011;5043;41.766;26.204;2023-12-04T15:48:51;13.90;;;9.63;;
10007;SDS011;5043;41.766;26.204;2023-12-04T15:51:17;18.65;;;13.25;;
10007;SDS011;5043;41.766;26.204;2023-12-04T15:53:48;35.38;;;26.65;;
10007;SDS011;5043;41.766;26.204;2023-12-04T15:56:15;32.95;;;17.00;;
10007;SDS011;5043;41.766;26.204;2023-12-04T16:01:49;179.35;;;102.57;;
10007;SDS011;5043;41.766;26.204;2023-12-04T16:04:14;80.88;;;44.28;;
10007;SDS011;5043;41.766;26.204;2023-12-04T16:06:39;39.75;;;23.85;;
10007;SDS011;5043;41.766;26.204;2023-12-04T16:09:05;29.60;;;21.40;;
10007;SDS011;5043;41.766;26.204;2023-12-04T16:11:31;27.10;;;15.15;;
10007;SDS011;5043;41.766;26.204;2023-12-04T16:13:56;16.83;;;10.20;;
10007;SDS011;5043;41.766;26.204;2023-12-04T16:16:28;16.70;;;10.63;;
10007;SDS011;5043;41.766;26.204;2023-12-04T16:18:54;48.00;;;22.92;;
10007;SDS011;5043;41.766;26.204;2023-12-04T16:21:19;73.80;;;34.25;;
10007;SDS011;5043;41.766;26.204;2023-12-04T16:23:46;32.15;;;16.50;;
10007;SDS011;5043;41.766;26.204;2023-12-04T16:26:11;24.20;;;13.18;;
10007;SDS011;5043;41.766;26.204;2023-12-04T16:28:37;16.63;;;9.52;;
10007;SDS011;5043;41.766;26.204;2023-12-04T16:34:23;16.42;;;9.95;;
10007;SDS011;5043;41.766;26.204;2023-12-04T16:39:53;20.60;;;10.85;;
10007;SDS011;5043;41.766;26.204;2023-12-04T16:42:18;22.17;;;13.30;;
10007;SDS011;5043;41.766;26.204;2023-12-04T16:44:44;21.67;;;14.25;;
10007;SDS011;5043;41.766;26.204;2023-12-04T16:47:10;27.02;;;15.02;;
10007;SDS011;5043;41.766;26.204;2023-12-04T16:49:35;27.13;;;16.30;;
10007;SDS011;5043;41.766;26.204;2023-12-04T16:52:01;29.23;;;19.77;;
10007;SDS011;5043;41.766;26.204;2023-12-04T16:54:33;29.35;;;17.25;;
10007;SDS011;5043;41.766;26.204;2023-12-04T17:00:32;10.95;;;6.75;;
10007;SDS011;5043;41.766;26.204;2023-12-04T17:03:02;8.32;;;6.00;;
10007;SDS011;5043;41.766;26.204;2023-12-04T17:09:03;5.80;;;4.35;;
10007;SDS011;5043;41.766;26.204;2023-12-04T17:11:40;6.53;;;4.70;;
10007;SDS011;5043;41.766;26.204;2023-12-04T17:14:06;10.73;;;5.53;;